sensor_id;sensor_type;location;lat;lon;timestamp;temperature;humidity
52459;DHT22;38372;52.902;6.024;2022-10-22T00:02:06;12.70;99.90
52459;DHT22;38372;52.902;6.024;2022-10-22T00:04:33;12.80;99.90
52459;DHT22;38372;52.902;6.024;2022-10-22T00:06:59;12.80;99.90
52459;DHT22;38372;52.902;6.024;2022-10-22T00:09:25;12.70;99.90
52459;DHT22;38372;52.902;6.024;2022-10-22T00:11:50;12.80;99.90
52459;DHT22;38372;52.902;6.024;2022-10-22T00:14:16;12.80;99.90
52459;DHT22;38372;52.902;6.024;2022-10-22T00:16:43;12.80;99.90
52459;DHT22;38372;52.902;6.024;2022-10-22T00:19:08;12.80;99.90
52459;DHT22;38372;52.902;6.024;2022-10-22T00:21:35;12.70;99.90
52459;DHT22;38372;52.902;6.024;2022-10-22T00:24:01;12.70;99.90
52459;DHT22;38372;52.902;6.024;2022-10-22T00:26:27;12.70;99.90
52459;DHT22;38372;52.902;6.024;2022-10-22T00:28:53;12.70;99.90
52459;DHT22;38372;52.902;6.024;2022-10-22T00:31:19;12.70;99.90
52459;DHT22;38372;52.902;6.024;2022-10-22T00:33:46;12.70;99.90
52459;DHT22;38372;52.902;6.024;2022-10-22T00:36:13;12.70;99.90
52459;DHT22;38372;52.902;6.024;2022-10-22T00:38:39;12.70;99.90
52459;DHT22;38372;52.902;6.024;2022-10-22T00:41:06;12.80;99.90
52459;DHT22;38372;52.902;6.024;2022-10-22T00:43:32;12.80;99.90
52459;DHT22;38372;52.902;6.024;2022-10-22T00:45:58;12.80;99.90
52459;DHT22;38372;52.902;6.024;2022-10-22T00:48:31;12.80;99.90
52459;DHT22;38372;52.902;6.024;2022-10-22T00:51:05;12.80;99.90
52459;DHT22;38372;52.902;6.024;2022-10-22T00:53:40;12.80;99.90
52459;DHT22;38372;52.902;6.024;2022-10-22T00:56:08;12.80;99.90
52459;DHT22;38372;52.902;6.024;2022-10-22T00:58:38;12.80;99.90
52459;DHT22;38372;52.902;6.024;2022-10-22T01:01:05;12.80;99.90
52459;DHT22;38372;52.902;6.024;2022-10-22T01:03:31;12.80;99.90
52459;DHT22;38372;52.902;6.024;2022-10-22T01:05:59;12.80;99.90
52459;DHT22;38372;52.902;6.024;2022-10-22T01:14:16;12.90;99.90
52459;DHT22;38372;52.902;6.024;2022-10-22T01:25:19;13.00;99.90
52459;DHT22;38372;52.902;6.024;2022-10-22T01:28:15;13.10;99.90
52459;DHT22;38372;52.902;6.024;2022-10-22T01:30:44;13.20;99.90
52459;DHT22;38372;52.902;6.024;2022-10-22T01:33:12;13.20;99.90
52459;DHT22;38372;52.902;6.024;2022-10-22T01:35:43;13.30;99.90
52459;DHT22;38372;52.902;6.024;2022-10-22T01:38:16;13.30;99.90
52459;DHT22;38372;52.902;6.024;2022-10-22T01:40:44;13.30;99.90
52459;DHT22;38372;52.902;6.024;2022-10-22T01:43:11;13.30;99.90
52459;DHT22;38372;52.902;6.024;2022-10-22T01:45:46;13.40;99.90
52459;DHT22;38372;52.902;6.024;2022-10-22T01:48:29;13.40;99.90
52459;DHT22;38372;52.902;6.024;2022-10-22T01:54:12;13.40;99.90
52459;DHT22;38372;52.902;6.024;2022-10-22T01:59:49;13.40;99.90
52459;DHT22;38372;52.902;6.024;2022-10-22T02:07:36;13.40;99.90
52459;DHT22;38372;52.902;6.024;2022-10-22T02:10:04;13.40;99.90
52459;DHT22;38372;52.902;6.024;2022-10-22T02:12:33;13.30;99.90
52459;DHT22;38372;52.902;6.024;2022-10-22T02:15:00;13.30;99.90
52459;DHT22;38372;52.902;6.024;2022-10-22T02:17:29;13.30;99.90
52459;DHT22;38372;52.902;6.024;2022-10-22T02:20:00;13.20;99.90
52459;DHT22;38372;52.902;6.024;2022-10-22T02:22:28;13.20;99.90
52459;DHT22;38372;52.902;6.024;2022-10-22T02:24:55;13.10;99.90
52459;DHT22;38372;52.902;6.024;2022-10-22T02:27:23;13.10;99.90
52459;DHT22;38372;52.902;6.024;2022-10-22T02:32:41;13.00;99.90
52459;DHT22;38372;52.902;6.024;2022-10-22T02:35:12;13.00;99.90
52459;DHT22;38372;52.902;6.024;2022-10-22T02:37:39;13.00;99.90
52459;DHT22;38372;52.902;6.024;2022-10-22T02:40:06;13.00;99.90
52459;DHT22;38372;52.902;6.024;2022-10-22T02:42:32;13.00;99.90
52459;DHT22;38372;52.902;6.024;2022-10-22T02:44:59;12.90;99.90
52459;DHT22;38372;52.902;6.024;2022-10-22T02:47:25;12.90;99.90
52459;DHT22;38372;52.902;6.024;2022-10-22T02:49:50;12.90;99.90
52459;DHT22;38372;52.902;6.024;2022-10-22T02:52:16;12.90;99.90
52459;DHT22;38372;52.902;6.024;2022-10-22T02:54:42;12.80;99.90
52459;DHT22;38372;52.902;6.024;2022-10-22T02:57:08;12.80;99.90
52459;DHT22;38372;52.902;6.024;2022-10-22T02:59:33;12.80;99.90
52459;DHT22;38372;52.902;6.024;2022-10-22T03:01:59;12.70;99.90
52459;DHT22;38372;52.902;6.024;2022-10-22T03:04:25;12.80;99.90
52459;DHT22;38372;52.902;6.024;2022-10-22T03:06:51;12.70;99.90
52459;DHT22;38372;52.902;6.024;2022-10-22T03:09:16;12.70;99.90
52459;DHT22;38372;52.902;6.024;2022-10-22T03:11:42;12.70;99.90
52459;DHT22;38372;52.902;6.024;2022-10-22T03:14:08;12.70;99.90
52459;DHT22;38372;52.902;6.024;2022-10-22T03:16:34;12.70;99.90
52459;DHT22;38372;52.902;6.024;2022-10-22T03:18:59;12.70;99.90
52459;DHT22;38372;52.902;6.024;2022-10-22T03:24:13;12.80;99.90
52459;DHT22;38372;52.902;6.024;2022-10-22T03:26:40;12.80;99.90
52459;DHT22;38372;52.902;6.024;2022-10-22T03:29:08;12.80;99.90
52459;DHT22;38372;52.902;6.024;2022-10-22T03:31:34;12.80;99.90
52459;DHT22;38372;52.902;6.024;2022-10-22T03:34:00;12.80;99.90
52459;DHT22;38372;52.902;6.024;2022-10-22T03:36:26;12.80;99.90
52459;DHT22;38372;52.902;6.024;2022-10-22T03:38:52;12.80;99.90
52459;DHT22;38372;52.902;6.024;2022-10-22T03:41:18;12.80;99.90
52459;DHT22;38372;52.902;6.024;2022-10-22T03:43:44;12.80;99.90
52459;DHT22;38372;52.902;6.024;2022-10-22T03:46:14;12.70;99.90
52459;DHT22;38372;52.902;6.024;2022-10-22T03:48:40;12.70;99.90
52459;DHT22;38372;52.902;6.024;2022-10-22T03:51:06;12.70;99.90
52459;DHT22;38372;52.902;6.024;2022-10-22T03:53:32;12.70;99.90
52459;DHT22;38372;52.902;6.024;2022-10-22T03:55:58;12.70;99.90
52459;DHT22;38372;52.902;6.024;2022-10-22T03:58:23;12.60;99.90
52459;DHT22;38372;52.902;6.024;2022-10-22T04:00:49;12.60;99.90
52459;DHT22;38372;52.902;6.024;2022-10-22T04:03:15;12.60;99.90
52459;DHT22;38372;52.902;6.024;2022-10-22T04:05:40;12.60;99.90
52459;DHT22;38372;52.902;6.024;2022-10-22T04:08:06;12.60;99.90
52459;DHT22;38372;52.902;6.024;2022-10-22T04:10:32;12.60;99.90
52459;DHT22;38372;52.902;6.024;2022-10-22T04:12:58;12.60;99.90
52459;DHT22;38372;52.902;6.024;2022-10-22T04:15:23;12.60;99.90
52459;DHT22;38372;52.902;6.024;2022-10-22T04:17:52;12.60;99.90
52459;DHT22;38372;52.902;6.024;2022-10-22T04:20:18;12.60;99.90
52459;DHT22;38372;52.902;6.024;2022-10-22T04:22:44;12.60;99.90
52459;DHT22;38372;52.902;6.024;2022-10-22T04:25:10;12.60;99.90
52459;DHT22;38372;52.902;6.024;2022-10-22T04:27:35;12.60;99.90
52459;DHT22;38372;52.902;6.024;2022-10-22T04:30:03;12.60;99.90
52459;DHT22;38372;52.902;6.024;2022-10-22T04:32:29;12.60;99.90
52459;DHT22;38372;52.902;6.024;2022-10-22T04:34:55;12.60;99.90
52459;DHT22;38372;52.902;6.024;2022-10-22T04:37:20;12.60;99.90
52459;DHT22;38372;52.902;6.024;2022-10-22T04:39:46;12.70;99.90
52459;DHT22;38372;52.902;6.024;2022-10-22T04:42:13;12.70;99.90
52459;DHT22;38372;52.902;6.024;2022-10-22T04:44:39;12.70;99.90
52459;DHT22;38372;52.902;6.024;2022-10-22T04:47:04;12.70;99.90
52459;DHT22;38372;52.902;6.024;2022-10-22T04:49:30;12.80;99.90
52459;DHT22;38372;52.902;6.024;2022-10-22T04:51:56;12.80;99.90
52459;DHT22;38372;52.902;6.024;2022-10-22T04:54:22;12.80;99.90
52459;DHT22;38372;52.902;6.024;2022-10-22T04:56:47;12.80;99.90
52459;DHT22;38372;52.902;6.024;2022-10-22T04:59:13;12.80;99.90
52459;DHT22;38372;52.902;6.024;2022-10-22T05:01:41;12.80;99.90
52459;DHT22;38372;52.902;6.024;2022-10-22T05:04:11;12.80;99.90
52459;DHT22;38372;52.902;6.024;2022-10-22T05:06:37;12.80;99.90
52459;DHT22;38372;52.902;6.024;2022-10-22T05:09:05;12.80;99.90
52459;DHT22;38372;52.902;6.024;2022-10-22T05:11:35;12.80;99.90
52459;DHT22;38372;52.902;6.024;2022-10-22T05:14:03;12.80;99.90
52459;DHT22;38372;52.902;6.024;2022-10-22T05:16:30;12.80;99.90
52459;DHT22;38372;52.902;6.024;2022-10-22T05:18:58;12.80;99.90
52459;DHT22;38372;52.902;6.024;2022-10-22T05:21:24;12.80;99.90
52459;DHT22;38372;52.902;6.024;2022-10-22T05:23:50;12.80;99.90
52459;DHT22;38372;52.902;6.024;2022-10-22T05:26:20;12.70;99.90
52459;DHT22;38372;52.902;6.024;2022-10-22T05:28:47;12.70;99.90
52459;DHT22;38372;52.902;6.024;2022-10-22T05:31:14;12.70;99.90
52459;DHT22;38372;52.902;6.024;2022-10-22T05:33:41;12.70;99.90
52459;DHT22;38372;52.902;6.024;2022-10-22T05:36:10;12.70;99.90
52459;DHT22;38372;52.902;6.024;2022-10-22T05:38:36;12.80;99.90
52459;DHT22;38372;52.902;6.024;2022-10-22T05:41:13;12.80;99.90
52459;DHT22;38372;52.902;6.024;2022-10-22T05:43:39;12.80;99.90
52459;DHT22;38372;52.902;6.024;2022-10-22T05:46:10;12.80;99.90
52459;DHT22;38372;52.902;6.024;2022-10-22T05:48:37;12.80;99.90
52459;DHT22;38372;52.902;6.024;2022-10-22T05:51:08;12.80;99.90
52459;DHT22;38372;52.902;6.024;2022-10-22T05:53:36;12.80;99.90
52459;DHT22;38372;52.902;6.024;2022-10-22T05:56:04;12.80;99.90
52459;DHT22;38372;52.902;6.024;2022-10-22T05:58:31;12.80;99.90
52459;DHT22;38372;52.902;6.024;2022-10-22T06:01:04;12.90;99.90
52459;DHT22;38372;52.902;6.024;2022-10-22T06:03:30;12.80;99.90
52459;DHT22;38372;52.902;6.024;2022-10-22T06:05:59;12.80;99.90
52459;DHT22;38372;52.902;6.024;2022-10-22T06:08:26;12.80;99.90
52459;DHT22;38372;52.902;6.024;2022-10-22T06:10:52;12.80;99.90
52459;DHT22;38372;52.902;6.024;2022-10-22T06:13:18;12.80;99.90
52459;DHT22;38372;52.902;6.024;2022-10-22T06:15:44;12.80;99.90
52459;DHT22;38372;52.902;6.024;2022-10-22T06:18:09;12.80;99.90
52459;DHT22;38372;52.902;6.024;2022-10-22T06:20:35;12.80;99.90
52459;DHT22;38372;52.902;6.024;2022-10-22T06:23:01;12.80;99.90
52459;DHT22;38372;52.902;6.024;2022-10-22T06:25:27;12.90;99.90
52459;DHT22;38372;52.902;6.024;2022-10-22T06:27:52;12.90;99.90
52459;DHT22;38372;52.902;6.024;2022-10-22T06:30:18;12.90;99.90
52459;DHT22;38372;52.902;6.024;2022-10-22T06:32:44;12.90;99.90
52459;DHT22;38372;52.902;6.024;2022-10-22T06:35:10;13.00;99.90
52459;DHT22;38372;52.902;6.024;2022-10-22T06:37:35;13.00;99.90
52459;DHT22;38372;52.902;6.024;2022-10-22T06:40:02;13.00;99.90
52459;DHT22;38372;52.902;6.024;2022-10-22T06:42:28;13.00;99.90
52459;DHT22;38372;52.902;6.024;2022-10-22T06:44:53;13.00;99.90
52459;DHT22;38372;52.902;6.024;2022-10-22T06:47:19;13.00;99.90
52459;DHT22;38372;52.902;6.024;2022-10-22T06:49:45;13.00;99.90
52459;DHT22;38372;52.902;6.024;2022-10-22T06:52:11;13.00;99.90
52459;DHT22;38372;52.902;6.024;2022-10-22T06:54:37;13.00;99.90
52459;DHT22;38372;52.902;6.024;2022-10-22T06:57:03;13.10;99.90
52459;DHT22;38372;52.902;6.024;2022-10-22T06:59:28;13.10;99.90
52459;DHT22;38372;52.902;6.024;2022-10-22T07:01:54;13.10;99.90
52459;DHT22;38372;52.902;6.024;2022-10-22T07:04:20;13.10;99.90
52459;DHT22;38372;52.902;6.024;2022-10-22T07:06:46;13.10;99.90
52459;DHT22;38372;52.902;6.024;2022-10-22T07:09:11;13.10;99.90
52459;DHT22;38372;52.902;6.024;2022-10-22T07:11:42;13.20;99.90
52459;DHT22;38372;52.902;6.024;2022-10-22T07:14:09;13.20;99.90
52459;DHT22;38372;52.902;6.024;2022-10-22T07:16:34;13.20;99.90
52459;DHT22;38372;52.902;6.024;2022-10-22T07:19:01;13.20;99.90
52459;DHT22;38372;52.902;6.024;2022-10-22T07:21:28;13.20;99.90
52459;DHT22;38372;52.902;6.024;2022-10-22T07:23:54;13.20;99.90
52459;DHT22;38372;52.902;6.024;2022-10-22T07:26:20;13.20;99.90
52459;DHT22;38372;52.902;6.024;2022-10-22T07:28:46;13.20;99.90
52459;DHT22;38372;52.902;6.024;2022-10-22T07:31:14;13.20;99.90
52459;DHT22;38372;52.902;6.024;2022-10-22T07:33:40;13.20;99.90
52459;DHT22;38372;52.902;6.024;2022-10-22T07:36:08;13.20;99.90
52459;DHT22;38372;52.902;6.024;2022-10-22T07:38:34;13.30;99.90
52459;DHT22;38372;52.902;6.024;2022-10-22T07:41:01;13.40;99.90
52459;DHT22;38372;52.902;6.024;2022-10-22T07:43:27;13.40;99.90
52459;DHT22;38372;52.902;6.024;2022-10-22T07:45:55;13.50;99.90
52459;DHT22;38372;52.902;6.024;2022-10-22T07:48:21;13.50;99.90
52459;DHT22;38372;52.902;6.024;2022-10-22T07:50:49;13.60;99.90
52459;DHT22;38372;52.902;6.024;2022-10-22T07:53:16;13.60;99.90
52459;DHT22;38372;52.902;6.024;2022-10-22T07:55:42;13.70;99.90
52459;DHT22;38372;52.902;6.024;2022-10-22T07:58:07;13.80;99.90
52459;DHT22;38372;52.902;6.024;2022-10-22T08:00:33;13.80;99.90
52459;DHT22;38372;52.902;6.024;2022-10-22T08:02:59;14.00;99.90
52459;DHT22;38372;52.902;6.024;2022-10-22T08:05:25;14.10;99.90
52459;DHT22;38372;52.902;6.024;2022-10-22T08:07:50;14.20;99.90
52459;DHT22;38372;52.902;6.024;2022-10-22T08:10:16;14.30;99.90
52459;DHT22;38372;52.902;6.024;2022-10-22T08:12:42;14.40;99.90
52459;DHT22;38372;52.902;6.024;2022-10-22T08:15:09;14.60;99.90
52459;DHT22;38372;52.902;6.024;2022-10-22T08:17:34;14.70;99.90
52459;DHT22;38372;52.902;6.024;2022-10-22T08:20:00;14.80;99.90
52459;DHT22;38372;52.902;6.024;2022-10-22T08:22:26;15.00;99.90
52459;DHT22;38372;52.902;6.024;2022-10-22T08:24:52;15.20;99.90
52459;DHT22;38372;52.902;6.024;2022-10-22T08:27:18;15.60;99.90
52459;DHT22;38372;52.902;6.024;2022-10-22T08:29:43;16.00;99.90
52459;DHT22;38372;52.902;6.024;2022-10-22T08:32:09;16.40;99.90
52459;DHT22;38372;52.902;6.024;2022-10-22T08:34:35;17.00;99.90
52459;DHT22;38372;52.902;6.024;2022-10-22T08:37:01;17.40;99.90
52459;DHT22;38372;52.902;6.024;2022-10-22T08:39:26;17.80;99.90
52459;DHT22;38372;52.902;6.024;2022-10-22T08:50:12;17.40;99.90
52459;DHT22;38372;52.902;6.024;2022-10-22T08:52:41;17.20;99.90
52459;DHT22;38372;52.902;6.024;2022-10-22T08:55:12;16.90;99.90
52459;DHT22;38372;52.902;6.024;2022-10-22T08:58:01;16.70;99.90
52459;DHT22;38372;52.902;6.024;2022-10-22T09:00:36;16.50;99.90
52459;DHT22;38372;52.902;6.024;2022-10-22T09:03:26;16.20;99.90
52459;DHT22;38372;52.902;6.024;2022-10-22T09:08:23;15.90;99.90
52459;DHT22;38372;52.902;6.024;2022-10-22T09:10:57;15.80;99.90
52459;DHT22;38372;52.902;6.024;2022-10-22T09:13:25;15.80;99.90
52459;DHT22;38372;52.902;6.024;2022-10-22T09:15:58;15.80;99.90
52459;DHT22;38372;52.902;6.024;2022-10-22T09:24:44;15.80;99.90
52459;DHT22;38372;52.902;6.024;2022-10-22T09:26:50;15.80;99.90
52459;DHT22;38372;52.902;6.024;2022-10-22T09:29:22;15.80;99.90
52459;DHT22;38372;52.902;6.024;2022-10-22T09:31:49;15.80;99.90
52459;DHT22;38372;52.902;6.024;2022-10-22T09:34:19;15.70;99.90
52459;DHT22;38372;52.902;6.024;2022-10-22T09:36:45;15.70;99.90
52459;DHT22;38372;52.902;6.024;2022-10-22T09:39:32;15.70;99.90
52459;DHT22;38372;52.902;6.024;2022-10-22T09:41:58;15.70;99.90
52459;DHT22;38372;52.902;6.024;2022-10-22T09:44:24;15.80;99.90
52459;DHT22;38372;52.902;6.024;2022-10-22T09:46:50;15.90;99.90
52459;DHT22;38372;52.902;6.024;2022-10-22T09:49:18;16.00;99.90
52459;DHT22;38372;52.902;6.024;2022-10-22T09:59:54;16.80;99.90
52459;DHT22;38372;52.902;6.024;2022-10-22T10:02:27;16.60;99.90
52459;DHT22;38372;52.902;6.024;2022-10-22T10:04:56;16.50;99.90
52459;DHT22;38372;52.902;6.024;2022-10-22T10:07:24;16.40;99.90
52459;DHT22;38372;52.902;6.024;2022-10-22T10:09:51;16.40;99.90
52459;DHT22;38372;52.902;6.024;2022-10-22T10:15:21;16.20;99.90
52459;DHT22;38372;52.902;6.024;2022-10-22T10:20:48;16.00;99.90
52459;DHT22;38372;52.902;6.024;2022-10-22T10:26:04;15.90;99.90
52459;DHT22;38372;52.902;6.024;2022-10-22T10:37:23;15.60;99.90
52459;DHT22;38372;52.902;6.024;2022-10-22T10:43:31;15.60;99.90
52459;DHT22;38372;52.902;6.024;2022-10-22T10:56:57;15.70;99.90
52459;DHT22;38372;52.902;6.024;2022-10-22T10:59:48;15.60;99.90
52459;DHT22;38372;52.902;6.024;2022-10-22T11:05:03;15.60;99.90
52459;DHT22;38372;52.902;6.024;2022-10-22T11:08:09;15.70;99.90
52459;DHT22;38372;52.902;6.024;2022-10-22T11:10:33;15.80;99.90
52459;DHT22;38372;52.902;6.024;2022-10-22T11:13:19;15.90;99.90
52459;DHT22;38372;52.902;6.024;2022-10-22T11:15:54;16.00;99.90
52459;DHT22;38372;52.902;6.024;2022-10-22T11:18:33;16.10;99.90
52459;DHT22;38372;52.902;6.024;2022-10-22T11:21:12;16.10;99.90
52459;DHT22;38372;52.902;6.024;2022-10-22T11:26:39;16.00;99.90
52459;DHT22;38372;52.902;6.024;2022-10-22T11:29:11;16.00;99.90
52459;DHT22;38372;52.902;6.024;2022-10-22T11:31:37;16.00;99.90
52459;DHT22;38372;52.902;6.024;2022-10-22T11:36:45;16.00;99.90
52459;DHT22;38372;52.902;6.024;2022-10-22T11:41:57;16.10;99.90
52459;DHT22;38372;52.902;6.024;2022-10-22T11:44:23;16.00;99.90
52459;DHT22;38372;52.902;6.024;2022-10-22T11:47:17;16.10;99.90
52459;DHT22;38372;52.902;6.024;2022-10-22T11:49:45;16.10;99.90
52459;DHT22;38372;52.902;6.024;2022-10-22T11:52:26;16.10;99.90
52459;DHT22;38372;52.902;6.024;2022-10-22T11:55:07;16.10;99.90
52459;DHT22;38372;52.902;6.024;2022-10-22T11:57:48;16.10;99.90
52459;DHT22;38372;52.902;6.024;2022-10-22T12:03:18;16.10;99.90
52459;DHT22;38372;52.902;6.024;2022-10-22T12:16:51;16.60;99.90
52459;DHT22;38372;52.902;6.024;2022-10-22T12:21:53;16.60;99.90
52459;DHT22;38372;52.902;6.024;2022-10-22T12:24:22;16.70;99.90
52459;DHT22;38372;52.902;6.024;2022-10-22T12:26:48;16.70;99.90
52459;DHT22;38372;52.902;6.024;2022-10-22T12:29:18;16.80;99.90
52459;DHT22;38372;52.902;6.024;2022-10-22T12:31:46;16.80;99.90
52459;DHT22;38372;52.902;6.024;2022-10-22T12:34:21;16.90;99.90
52459;DHT22;38372;52.902;6.024;2022-10-22T12:36:51;16.90;99.90
52459;DHT22;38372;52.902;6.024;2022-10-22T12:39:19;16.90;99.90
52459;DHT22;38372;52.902;6.024;2022-10-22T12:41:45;16.90;99.90
52459;DHT22;38372;52.902;6.024;2022-10-22T12:44:14;17.00;99.90
52459;DHT22;38372;52.902;6.024;2022-10-22T12:46:41;17.20;99.90
52459;DHT22;38372;52.902;6.024;2022-10-22T12:49:16;17.30;99.90
52459;DHT22;38372;52.902;6.024;2022-10-22T12:51:44;17.30;99.90
52459;DHT22;38372;52.902;6.024;2022-10-22T12:54:27;17.20;99.90
52459;DHT22;38372;52.902;6.024;2022-10-22T12:56:54;17.20;99.90
52459;DHT22;38372;52.902;6.024;2022-10-22T12:59:28;17.10;99.90
52459;DHT22;38372;52.902;6.024;2022-10-22T13:01:55;17.20;99.90
52459;DHT22;38372;52.902;6.024;2022-10-22T13:04:34;17.20;99.90
52459;DHT22;38372;52.902;6.024;2022-10-22T13:07:16;17.30;99.90
52459;DHT22;38372;52.902;6.024;2022-10-22T13:12:25;17.20;99.90
52459;DHT22;38372;52.902;6.024;2022-10-22T13:14:51;17.00;99.90
52459;DHT22;38372;52.902;6.024;2022-10-22T13:17:19;16.90;99.90
52459;DHT22;38372;52.902;6.024;2022-10-22T13:24:54;16.80;99.90
52459;DHT22;38372;52.902;6.024;2022-10-22T13:27:22;16.70;99.90
52459;DHT22;38372;52.902;6.024;2022-10-22T13:29:48;16.60;99.90
52459;DHT22;38372;52.902;6.024;2022-10-22T13:32:41;16.60;99.90
52459;DHT22;38372;52.902;6.024;2022-10-22T13:35:11;16.60;99.90
52459;DHT22;38372;52.902;6.024;2022-10-22T13:37:41;16.60;99.90
52459;DHT22;38372;52.902;6.024;2022-10-22T13:40:11;16.70;99.90
52459;DHT22;38372;52.902;6.024;2022-10-22T13:42:37;16.90;99.90
52459;DHT22;38372;52.902;6.024;2022-10-22T13:45:04;17.00;99.90
52459;DHT22;38372;52.902;6.024;2022-10-22T13:47:31;17.20;99.90
52459;DHT22;38372;52.902;6.024;2022-10-22T13:49:59;17.20;99.90
52459;DHT22;38372;52.902;6.024;2022-10-22T13:52:35;17.30;99.90
52459;DHT22;38372;52.902;6.024;2022-10-22T13:55:12;17.30;99.90
52459;DHT22;38372;52.902;6.024;2022-10-22T13:57:37;17.30;99.90
52459;DHT22;38372;52.902;6.024;2022-10-22T14:00:04;17.30;99.90
52459;DHT22;38372;52.902;6.024;2022-10-22T14:02:30;17.30;99.90
52459;DHT22;38372;52.902;6.024;2022-10-22T14:04:56;17.20;99.90
52459;DHT22;38372;52.902;6.024;2022-10-22T14:07:27;17.20;99.90
52459;DHT22;38372;52.902;6.024;2022-10-22T14:09:53;17.10;99.90
52459;DHT22;38372;52.902;6.024;2022-10-22T14:12:19;17.00;99.90
52459;DHT22;38372;52.902;6.024;2022-10-22T14:14:44;17.00;99.90
52459;DHT22;38372;52.902;6.024;2022-10-22T14:17:14;17.00;99.90
52459;DHT22;38372;52.902;6.024;2022-10-22T14:19:46;17.00;99.90
52459;DHT22;38372;52.902;6.024;2022-10-22T14:22:17;17.00;99.90
52459;DHT22;38372;52.902;6.024;2022-10-22T14:24:43;17.00;99.90
52459;DHT22;38372;52.902;6.024;2022-10-22T14:27:11;16.90;99.90
52459;DHT22;38372;52.902;6.024;2022-10-22T14:29:37;16.90;99.90
52459;DHT22;38372;52.902;6.024;2022-10-22T14:32:15;16.80;99.90
52459;DHT22;38372;52.902;6.024;2022-10-22T14:34:42;16.80;99.90
52459;DHT22;38372;52.902;6.024;2022-10-22T14:37:17;16.60;99.90
52459;DHT22;38372;52.902;6.024;2022-10-22T14:39:44;16.50;99.90
52459;DHT22;38372;52.902;6.024;2022-10-22T14:42:18;16.50;99.90
52459;DHT22;38372;52.902;6.024;2022-10-22T14:44:44;16.50;99.90
52459;DHT22;38372;52.902;6.024;2022-10-22T14:47:10;16.60;99.90
52459;DHT22;38372;52.902;6.024;2022-10-22T14:49:36;16.50;99.90
52459;DHT22;38372;52.902;6.024;2022-10-22T14:52:02;16.40;99.90
52459;DHT22;38372;52.902;6.024;2022-10-22T14:54:28;16.30;99.90
52459;DHT22;38372;52.902;6.024;2022-10-22T14:56:54;16.30;99.90
52459;DHT22;38372;52.902;6.024;2022-10-22T14:59:19;16.20;99.90
52459;DHT22;38372;52.902;6.024;2022-10-22T15:01:45;16.10;99.90
52459;DHT22;38372;52.902;6.024;2022-10-22T15:04:11;16.00;99.90
52459;DHT22;38372;52.902;6.024;2022-10-22T15:06:36;15.90;99.90
52459;DHT22;38372;52.902;6.024;2022-10-22T15:09:02;15.70;99.90
52459;DHT22;38372;52.902;6.024;2022-10-22T15:11:28;15.70;99.90
52459;DHT22;38372;52.902;6.024;2022-10-22T15:13:54;15.60;99.90
52459;DHT22;38372;52.902;6.024;2022-10-22T15:16:20;15.60;99.90
52459;DHT22;38372;52.902;6.024;2022-10-22T15:18:46;15.50;99.90
52459;DHT22;38372;52.902;6.024;2022-10-22T15:21:18;15.40;99.90
52459;DHT22;38372;52.902;6.024;2022-10-22T15:23:45;15.40;99.90
52459;DHT22;38372;52.902;6.024;2022-10-22T15:26:12;15.30;99.90
52459;DHT22;38372;52.902;6.024;2022-10-22T15:28:39;15.20;99.90
52459;DHT22;38372;52.902;6.024;2022-10-22T15:31:07;15.10;99.90
52459;DHT22;38372;52.902;6.024;2022-10-22T15:33:33;15.10;99.90
52459;DHT22;38372;52.902;6.024;2022-10-22T15:36:08;15.00;99.90
52459;DHT22;38372;52.902;6.024;2022-10-22T15:38:35;14.90;99.90
52459;DHT22;38372;52.902;6.024;2022-10-22T15:41:02;14.80;99.90
52459;DHT22;38372;52.902;6.024;2022-10-22T15:43:28;14.80;99.90
52459;DHT22;38372;52.902;6.024;2022-10-22T15:46:09;14.70;99.90
52459;DHT22;38372;52.902;6.024;2022-10-22T15:48:35;14.60;99.90
52459;DHT22;38372;52.902;6.024;2022-10-22T15:51:09;14.50;99.90
52459;DHT22;38372;52.902;6.024;2022-10-22T15:53:35;14.50;99.90
52459;DHT22;38372;52.902;6.024;2022-10-22T15:56:01;14.40;99.90
52459;DHT22;38372;52.902;6.024;2022-10-22T15:58:27;14.40;99.90
52459;DHT22;38372;52.902;6.024;2022-10-22T16:00:52;14.30;99.90
52459;DHT22;38372;52.902;6.024;2022-10-22T16:03:18;14.20;99.90
52459;DHT22;38372;52.902;6.024;2022-10-22T16:05:51;14.10;99.90
52459;DHT22;38372;52.902;6.024;2022-10-22T16:08:19;14.00;99.90
52459;DHT22;38372;52.902;6.024;2022-10-22T16:10:45;14.00;99.90
52459;DHT22;38372;52.902;6.024;2022-10-22T16:13:13;13.90;99.90
52459;DHT22;38372;52.902;6.024;2022-10-22T16:15:40;13.90;99.90
52459;DHT22;38372;52.902;6.024;2022-10-22T16:18:06;13.80;99.90
52459;DHT22;38372;52.902;6.024;2022-10-22T16:20:32;13.70;99.90
52459;DHT22;38372;52.902;6.024;2022-10-22T16:23:02;13.70;99.90
52459;DHT22;38372;52.902;6.024;2022-10-22T16:25:28;13.60;99.90
52459;DHT22;38372;52.902;6.024;2022-10-22T16:27:54;13.50;99.90
52459;DHT22;38372;52.902;6.024;2022-10-22T16:30:19;13.50;99.90
52459;DHT22;38372;52.902;6.024;2022-10-22T16:32:45;13.40;99.90
52459;DHT22;38372;52.902;6.024;2022-10-22T16:35:11;13.30;99.90
52459;DHT22;38372;52.902;6.024;2022-10-22T16:37:37;13.30;99.90
52459;DHT22;38372;52.902;6.024;2022-10-22T16:40:03;13.30;99.90
52459;DHT22;38372;52.902;6.024;2022-10-22T16:42:29;13.20;99.90
52459;DHT22;38372;52.902;6.024;2022-10-22T16:44:55;13.10;99.90
52459;DHT22;38372;52.902;6.024;2022-10-22T16:47:20;13.00;99.90
52459;DHT22;38372;52.902;6.024;2022-10-22T16:49:46;13.00;99.90
52459;DHT22;38372;52.902;6.024;2022-10-22T16:52:12;12.90;99.90
52459;DHT22;38372;52.902;6.024;2022-10-22T16:54:38;12.90;99.90
52459;DHT22;38372;52.902;6.024;2022-10-22T16:57:03;12.80;99.90
52459;DHT22;38372;52.902;6.024;2022-10-22T16:59:29;12.70;99.90
52459;DHT22;38372;52.902;6.024;2022-10-22T17:01:55;12.70;99.90
52459;DHT22;38372;52.902;6.024;2022-10-22T17:04:21;12.60;99.90
52459;DHT22;38372;52.902;6.024;2022-10-22T17:06:48;12.60;99.90
52459;DHT22;38372;52.902;6.024;2022-10-22T17:09:13;12.50;99.90
52459;DHT22;38372;52.902;6.024;2022-10-22T17:11:39;12.40;99.90
52459;DHT22;38372;52.902;6.024;2022-10-22T17:14:05;12.30;99.90
52459;DHT22;38372;52.902;6.024;2022-10-22T17:16:31;12.30;99.90
52459;DHT22;38372;52.902;6.024;2022-10-22T17:18:57;12.20;99.90
52459;DHT22;38372;52.902;6.024;2022-10-22T17:21:23;12.20;99.90
52459;DHT22;38372;52.902;6.024;2022-10-22T17:23:55;12.20;99.90
52459;DHT22;38372;52.902;6.024;2022-10-22T17:26:22;12.10;99.90
52459;DHT22;38372;52.902;6.024;2022-10-22T17:28:48;12.10;99.90
52459;DHT22;38372;52.902;6.024;2022-10-22T17:33:46;12.00;99.90
52459;DHT22;38372;52.902;6.024;2022-10-22T17:36:12;12.00;99.90
52459;DHT22;38372;52.902;6.024;2022-10-22T17:38:39;11.90;99.90
52459;DHT22;38372;52.902;6.024;2022-10-22T17:41:07;11.90;99.90
52459;DHT22;38372;52.902;6.024;2022-10-22T17:43:34;11.90;99.90